Bratsberg, Minnesota
Current Conditions -  °F | °C
As of 4:14 AM on Saturday 20 Dec 2014 (Local Time) from KONA Reporting Station
Overcast Overcast  
Wind Chill: 30°   Ceiling: 2000
Heat Index: 30°   Visibility: 10mi
Dew Point: 25°   Wind: 3mph
Humidity: 80%   Direction: 140°SE
Pressure: 30.22"   Gusts: NA
Location:  43.8851°N, 91.7705°W
Report Text: KONA 201014Z AUTO 14003KT 10SM BKN020 OVC034 M01/M04 A3022 RMK AO2
Loading
Personal Weather Stations






























Interactive Weather Map New forecast layout! Learn more

10-Day Weather Forecast

Advertisements
Track Severe Weather on mobile